KRAP/RAP METAR and TAF weather

Enter ICAO airport designator
Station Type Date Time Source
KRAP METAR 2022/01/23 11:52 UTC NOAA

KRAP 231152Z AUTO 00000KT 10SM FEW075 OVC100 01/M02 A3001 RMK AO2 SLP181 T00111022 10067 20000 58015


Station Type Date Time Source
KRAP Decoded METAR 2022/01/23 11:52 UTC NOAA

RAPID CITY REGIONAL AIRPORT , SD, United States (KRAP) 44-03N 103-03W 965M
Jan 23, 2022 - 06:52 AM EST / 2022.01.23 1152 UTC
Wind: Calm:0
Visibility: 10 mile(s):0
Sky conditions: overcast
Temperature: 34.0 F (1.1 C)
Dew Point: 28.0 F (-2.2 C)
Relative Humidity: 78%
Pressure (altimeter): 30.01 in. Hg (1016 hPa)
Pressure tendency: 0.04 inches (1.5 hPa) lower than three hours ago
ob: KRAP 231152Z AUTO 00000KT 10SM FEW075 OVC100 01/M02 A3001 RMK AO2 SLP181 T00111022 10067 20000 58015
cycle: 12

Station Type Date Time Source
KRAP TAF 2022/01/23 12:22 UTC NOAA

TAF KRAP 231120Z 2312/2412 28008KT P6SM BKN100 WS020/32045KT
FM231700 32025G35KT P6SM BKN250
FM232300 32012KT P6SM BKN150

Example: see airport list